createdAt,value
2023-03-04T00:00:09.789Z,99764.56
2023-03-04T00:02:41.052Z,99759.59
2023-03-04T00:05:09.674Z,99758.91
2023-03-04T00:07:37.536Z,99759.59
2023-03-04T00:10:06.472Z,99757.72
2023-03-04T00:12:34.294Z,99767.94
2023-03-04T00:15:03.660Z,99764.53
2023-03-04T00:17:31.683Z,99761.88
2023-03-04T00:19:59.657Z,99763.59
2023-03-04T00:22:27.614Z,99762.56
2023-03-04T00:24:55.542Z,99767.28
2023-03-04T00:27:23.373Z,99764.81
2023-03-04T00:29:51.270Z,99768.91
2023-03-04T00:32:20.549Z,99767.75
2023-03-04T00:34:48.788Z,99749.88
2023-03-04T00:37:16.656Z,99770.31
2023-03-04T00:39:44.628Z,99773.41
2023-03-04T00:42:12.502Z,99773.59
2023-03-04T00:44:40.438Z,99772.00
2023-03-04T00:47:08.583Z,99773.72
2023-03-04T00:49:38.146Z,99772.00
2023-03-04T00:52:05.985Z,99770.16
2023-03-04T00:54:33.856Z,99763.50
2023-03-04T00:57:01.728Z,99757.03
2023-03-04T00:59:29.601Z,99759.50
2023-03-04T01:01:57.534Z,99757.03
2023-03-04T01:04:25.402Z,99743.88
2023-03-04T01:06:55.047Z,99748.84
2023-03-04T01:09:22.932Z,99740.56
2023-03-04T01:11:50.790Z,99741.00
2023-03-04T01:14:18.627Z,99742.06
2023-03-04T01:16:46.605Z,99734.88
2023-03-04T01:19:14.642Z,99726.34
2023-03-04T01:21:42.600Z,99724.81
2023-03-04T01:24:11.915Z,99724.81
2023-03-04T01:26:41.730Z,99718.84
2023-03-04T01:29:09.591Z,99720.22
2023-03-04T01:31:37.461Z,99720.06
2023-03-04T01:34:05.310Z,99714.09
2023-03-04T01:36:33.212Z,99707.09
2023-03-04T01:39:01.075Z,99711.03
2023-03-04T01:41:30.292Z,99714.59
2023-03-04T01:44:00.798Z,99714.75
2023-03-04T01:46:29.608Z,99711.69
2023-03-04T01:48:58.018Z,99714.94
2023-03-04T01:51:26.130Z,99712.72
2023-03-04T01:53:54.966Z,99711.84
2023-03-04T01:56:26.143Z,99702.81
2023-03-04T01:59:11.196Z,99700.25
2023-03-04T02:01:40.568Z,99702.81
2023-03-04T02:04:09.153Z,99697.88
2023-03-04T02:06:38.429Z,99697.13
2023-03-04T02:09:07.495Z,99702.81
2023-03-04T02:11:36.906Z,99693.97
2023-03-04T02:14:05.341Z,99689.88
2023-03-04T02:16:35.053Z,99694.66
2023-03-04T02:19:03.432Z,99690.28
2023-03-04T02:21:34.396Z,99690.66
2023-03-04T02:24:11.560Z,99690.03
2023-03-04T02:26:43.505Z,99685.47
2023-03-04T02:29:14.569Z,99685.94
2023-03-04T02:31:44.149Z,99677.94
2023-03-04T02:34:15.317Z,99681.19
2023-03-04T02:36:44.833Z,99681.34
2023-03-04T02:39:16.234Z,99680.41
2023-03-04T02:41:47.833Z,99668.06
2023-03-04T02:44:19.240Z,99677.53
2023-03-04T02:46:48.790Z,99673.38
2023-03-04T02:49:17.559Z,99680.88
2023-03-04T02:51:45.894Z,99673.19
2023-03-04T02:54:18.078Z,99666.72
2023-03-04T02:56:48.952Z,99657.50
2023-03-04T02:59:18.072Z,99656.97
2023-03-04T03:01:46.956Z,99655.38
2023-03-04T03:04:15.716Z,99661.16
2023-03-04T03:06:45.562Z,99650.50
2023-03-04T03:09:13.997Z,99646.09
2023-03-04T03:11:42.099Z,99646.78
2023-03-04T03:14:12.399Z,99652.56
2023-03-04T03:16:40.347Z,99648.03
2023-03-04T03:19:08.373Z,99652.31
2023-03-04T03:21:37.281Z,99652.72
2023-03-04T03:24:05.731Z,99652.59
2023-03-04T03:26:33.715Z,99651.50
2023-03-04T03:29:01.569Z,99647.38
2023-03-04T03:31:31.519Z,99654.25
2023-03-04T03:33:59.451Z,99641.25
2023-03-04T03:36:29.035Z,99640.00
2023-03-04T03:38:56.914Z,99656.06
2023-03-04T03:41:24.800Z,99651.53
2023-03-04T03:43:52.646Z,99652.19
2023-03-04T03:46:20.533Z,99651.09
2023-03-04T03:48:49.805Z,99656.81
2023-03-04T03:51:17.602Z,99654.94
2023-03-04T03:53:46.606Z,99662.72
2023-03-04T03:56:14.453Z,99661.56
2023-03-04T03:58:42.286Z,99658.09
2023-03-04T04:01:10.261Z,99655.13
2023-03-04T04:03:38.176Z,99647.78
2023-03-04T04:06:08.391Z,99635.94
2023-03-04T04:08:36.226Z,99643.69
2023-03-04T04:11:04.098Z,99641.97
2023-03-04T04:13:32.027Z,99626.81
2023-03-04T04:15:59.857Z,99639.78
2023-03-04T04:18:27.927Z,99637.59
2023-03-04T04:20:56.128Z,99638.94
2023-03-04T04:23:25.474Z,99634.38
2023-03-04T04:25:55.867Z,99621.72
2023-03-04T04:28:23.842Z,99632.47
2023-03-04T04:30:51.957Z,99634.09
2023-03-04T04:33:19.911Z,99645.75
2023-03-04T04:35:47.754Z,99627.94
2023-03-04T04:38:16.732Z,99632.28
2023-03-04T04:40:45.958Z,99641.69
2023-03-04T04:43:13.830Z,99638.03
2023-03-04T04:45:42.415Z,99630.22
2023-03-04T04:48:10.512Z,99626.97
2023-03-04T04:50:38.339Z,99633.38
2023-03-04T04:53:06.242Z,99631.47
2023-03-04T04:55:35.216Z,99636.50
2023-03-04T04:58:06.737Z,99639.56
2023-03-04T05:00:34.756Z,99634.84
2023-03-04T05:03:02.672Z,99641.69
2023-03-04T05:05:30.601Z,99646.50
2023-03-04T05:07:58.705Z,99639.13
2023-03-04T05:10:26.639Z,99640.50
2023-03-04T05:12:54.523Z,99633.03
2023-03-04T05:15:23.894Z,99635.78
2023-03-04T05:17:51.868Z,99638.25
2023-03-04T05:20:19.786Z,99639.00
2023-03-04T05:22:47.756Z,99635.81
2023-03-04T05:25:15.703Z,99631.63
2023-03-04T05:27:43.531Z,99637.97
2023-03-04T05:30:13.118Z,99645.84
2023-03-04T05:32:42.347Z,99643.19
2023-03-04T05:35:11.034Z,99639.56
2023-03-04T05:37:39.000Z,99643.28
2023-03-04T05:40:09.286Z,99629.53
2023-03-04T05:42:37.139Z,99638.63
2023-03-04T05:45:05.577Z,99631.22
2023-03-04T05:47:33.493Z,99640.03
2023-03-04T05:50:02.695Z,99634.91
2023-03-04T05:52:30.675Z,99631.16
2023-03-04T05:54:58.570Z,99630.41
2023-03-04T05:57:26.495Z,99637.59
2023-03-04T05:59:54.412Z,99630.06
2023-03-04T06:02:22.298Z,99641.06
2023-03-04T06:04:50.364Z,99636.78
2023-03-04T06:07:19.685Z,99640.13
2023-03-04T06:09:47.700Z,99640.34
2023-03-04T06:12:15.598Z,99640.72
2023-03-04T06:14:43.515Z,99640.31
2023-03-04T06:17:11.386Z,99647.56
2023-03-04T06:19:39.230Z,99633.16
2023-03-04T06:22:07.058Z,99654.34
2023-03-04T06:24:36.404Z,99655.53
2023-03-04T06:27:04.791Z,99660.06
2023-03-04T06:29:33.739Z,99657.44
2023-03-04T06:32:01.974Z,99655.94
2023-03-04T06:34:30.647Z,99661.28
2023-03-04T06:36:58.522Z,99661.09
2023-03-04T06:39:26.408Z,99667.00
2023-03-04T06:41:55.726Z,99664.94
2023-03-04T06:44:23.659Z,99672.53
2023-03-04T06:46:54.095Z,99671.88
2023-03-04T06:49:22.079Z,99670.53
2023-03-04T06:51:50.050Z,99679.31
2023-03-04T06:54:17.962Z,99673.28
2023-03-04T06:56:45.772Z,99667.06
2023-03-04T06:59:15.075Z,99667.41
2023-03-04T07:01:43.035Z,99675.34
2023-03-04T07:04:10.970Z,99671.78
2023-03-04T07:06:38.900Z,99684.75
2023-03-04T07:09:06.898Z,99683.16
2023-03-04T07:11:35.000Z,99679.97
2023-03-04T07:14:02.916Z,99684.06
2023-03-04T07:16:32.272Z,99677.50
2023-03-04T07:19:00.505Z,99675.03
2023-03-04T07:21:28.546Z,99682.72
2023-03-04T07:23:56.481Z,99677.25
2023-03-04T07:26:24.328Z,99673.94
2023-03-04T07:28:54.440Z,99688.94
2023-03-04T07:31:24.988Z,99681.25
2023-03-04T07:33:57.651Z,99682.00
2023-03-04T07:36:26.071Z,99685.22
2023-03-04T07:38:55.039Z,99681.59
2023-03-04T07:41:25.067Z,99685.19
2023-03-04T07:43:53.367Z,99672.56
2023-03-04T07:46:21.445Z,99671.19
2023-03-04T07:48:49.357Z,99665.63
2023-03-04T07:51:21.315Z,99658.94
2023-03-04T07:53:51.477Z,99652.72
2023-03-04T07:56:21.564Z,99655.97
2023-03-04T07:58:49.725Z,99650.50
2023-03-04T08:01:19.181Z,99651.22
2023-03-04T08:03:47.448Z,99656.06
2023-03-04T08:06:17.463Z,99641.66
2023-03-04T08:08:47.520Z,99645.31
2023-03-04T08:11:17.530Z,99650.34
2023-03-04T08:13:45.970Z,99640.03
2023-03-04T08:16:15.793Z,99639.44
2023-03-04T08:18:44.408Z,99624.41
2023-03-04T08:21:13.359Z,99641.25
2023-03-04T08:23:42.473Z,99633.16
2023-03-04T08:26:14.461Z,99630.19
2023-03-04T08:28:43.069Z,99627.78
2023-03-04T08:31:10.951Z,99626.56
2023-03-04T08:33:38.808Z,99617.94
2023-03-04T08:36:07.564Z,99629.69
2023-03-04T08:38:35.642Z,99624.75
2023-03-04T08:41:04.223Z,99613.44
2023-03-04T08:43:34.778Z,99616.25
2023-03-04T08:46:03.013Z,99613.00
2023-03-04T08:48:30.866Z,99603.59
2023-03-04T08:50:59.146Z,99598.25
2023-03-04T08:53:27.296Z,99598.47
2023-03-04T08:55:55.143Z,99598.81
2023-03-04T08:58:23.031Z,99602.41
2023-03-04T09:00:52.510Z,99598.47
2023-03-04T09:03:20.651Z,99592.84
2023-03-04T09:05:49.535Z,99585.63
2023-03-04T09:08:18.282Z,99581.75
2023-03-04T09:10:47.729Z,99588.63
2023-03-04T09:13:16.268Z,99584.59
2023-03-04T09:15:45.606Z,99584.84
2023-03-04T09:18:15.756Z,99582.44
2023-03-04T09:20:43.578Z,99579.19
2023-03-04T09:23:11.763Z,99573.50
2023-03-04T09:25:40.804Z,99572.81
2023-03-04T09:28:08.783Z,99577.06
2023-03-04T09:30:36.717Z,99572.25
2023-03-04T09:33:04.834Z,99575.81
2023-03-04T09:35:34.178Z,99577.63
2023-03-04T09:38:02.297Z,99570.44
2023-03-04T09:40:33.638Z,99565.63
2023-03-04T09:43:04.283Z,99565.06
2023-03-04T09:45:37.940Z,99561.13
2023-03-04T09:48:08.065Z,99560.38
2023-03-04T09:50:44.449Z,99556.56
2023-03-04T09:53:22.066Z,99551.97
2023-03-04T09:55:52.531Z,99548.72
2023-03-04T09:58:34.950Z,99540.56
2023-03-04T10:01:05.563Z,99531.78
2023-03-04T10:03:43.103Z,99523.63
2023-03-04T10:06:17.212Z,99518.88
2023-03-04T10:08:53.708Z,99512.47
2023-03-04T10:11:25.894Z,99508.72
2023-03-04T10:14:09.280Z,99514.03
2023-03-04T10:16:43.734Z,99503.50
2023-03-04T10:19:29.730Z,99518.81
2023-03-04T10:21:59.625Z,99506.84
2023-03-04T10:24:29.762Z,99513.78
2023-03-04T10:27:03.595Z,99497.56
2023-03-04T10:29:33.622Z,99498.72
2023-03-04T10:32:01.607Z,99493.03
2023-03-04T10:34:29.609Z,99487.47
2023-03-04T10:37:01.400Z,99476.09
2023-03-04T10:39:31.729Z,99486.28
2023-03-04T10:42:02.258Z,99476.59
2023-03-04T10:44:31.728Z,99470.28
2023-03-04T10:47:00.432Z,99478.91
2023-03-04T10:49:30.079Z,99460.63
2023-03-04T10:52:05.557Z,99460.63
2023-03-04T10:54:41.741Z,99485.81
2023-03-04T10:57:17.046Z,99460.09
2023-03-04T10:59:50.529Z,99460.88
2023-03-04T11:02:23.287Z,99451.09
2023-03-04T11:04:53.587Z,99452.97
2023-03-04T11:07:24.951Z,99450.69
2023-03-04T11:09:53.318Z,99458.34
2023-03-04T11:12:32.540Z,99448.47
2023-03-04T11:15:00.906Z,99450.41
2023-03-04T11:17:30.742Z,99454.78
2023-03-04T11:20:05.899Z,99436.91
2023-03-04T11:22:35.625Z,99442.00
2023-03-04T11:25:08.976Z,99432.78
2023-03-04T11:27:41.353Z,99443.59
2023-03-04T11:30:30.258Z,99433.56
2023-03-04T11:33:06.219Z,99423.09
2023-03-04T11:35:39.650Z,99427.16
2023-03-04T11:38:18.129Z,99418.09
2023-03-04T11:40:51.112Z,99423.19
2023-03-04T11:43:23.024Z,99423.19
2023-03-04T11:46:11.493Z,99409.13
2023-03-04T11:48:50.604Z,99429.09
2023-03-04T11:51:24.378Z,99414.47
2023-03-04T11:54:02.976Z,99408.59
2023-03-04T11:56:38.013Z,99414.47
2023-03-04T11:59:26.285Z,99411.31
2023-03-04T12:02:09.454Z,99413.91
2023-03-04T12:05:06.141Z,99411.31
2023-03-04T12:07:52.757Z,99413.00
2023-03-04T12:10:29.274Z,99403.97
2023-03-04T12:13:24.754Z,99412.22
2023-03-04T12:16:02.125Z,99403.97
2023-03-04T12:18:51.282Z,99401.00
2023-03-04T12:21:36.332Z,99408.75
2023-03-04T12:24:23.509Z,99400.75
2023-03-04T12:26:58.875Z,99420.06
2023-03-04T12:29:35.468Z,99412.22
2023-03-04T12:32:14.566Z,99426.59
2023-03-04T12:35:01.393Z,99412.44
2023-03-04T12:37:44.294Z,99418.22
2023-03-04T12:40:33.503Z,99414.88
2023-03-04T12:43:25.735Z,99415.41
2023-03-04T12:46:04.595Z,99432.34
2023-03-04T12:48:36.388Z,99439.09
2023-03-04T12:51:16.575Z,99416.41
2023-03-04T12:53:56.602Z,99416.69
2023-03-04T12:56:28.859Z,99403.97
2023-03-04T12:58:58.662Z,99432.47
2023-03-04T13:01:30.853Z,99422.91
2023-03-04T13:04:06.437Z,99406.28
2023-03-04T13:06:45.277Z,99432.75
2023-03-04T13:09:19.946Z,99421.94
2023-03-04T13:11:55.747Z,99419.75
2023-03-04T13:14:31.921Z,99417.22
2023-03-04T13:17:01.857Z,99424.25
2023-03-04T13:19:52.513Z,99419.53
2023-03-04T13:22:53.411Z,99430.16
2023-03-04T13:25:33.548Z,99421.44
2023-03-04T13:28:20.626Z,99420.25
2023-03-04T13:31:15.256Z,99409.78
2023-03-04T13:34:04.501Z,99418.25
2023-03-04T13:36:55.785Z,99445.94
2023-03-04T13:39:30.704Z,99426.16
2023-03-04T13:41:59.318Z,99438.84
2023-03-04T13:45:01.300Z,99405.28
2023-03-04T13:47:46.410Z,99424.44
2023-03-04T13:50:25.492Z,99431.78
2023-03-04T13:52:54.052Z,99439.22
2023-03-04T13:55:44.145Z,99417.53
2023-03-04T13:58:19.125Z,99434.88
2023-03-04T14:00:52.353Z,99414.28
2023-03-04T14:03:25.336Z,99425.56
2023-03-04T14:06:19.723Z,99423.03
2023-03-04T14:08:49.002Z,99411.75
2023-03-04T14:11:23.966Z,99406.78
2023-03-04T14:13:52.454Z,99419.41
2023-03-04T14:16:21.826Z,99413.81
2023-03-04T14:18:59.981Z,99425.09
2023-03-04T14:21:28.763Z,99415.06
2023-03-04T14:24:06.080Z,99418.25
2023-03-04T14:26:35.159Z,99414.22
2023-03-04T14:29:04.004Z,99409.59
2023-03-04T14:31:35.663Z,99413.28
2023-03-04T14:34:05.443Z,99412.38
2023-03-04T14:36:35.584Z,99409.03
2023-03-04T14:39:06.844Z,99412.91
2023-03-04T14:41:37.914Z,99412.25
2023-03-04T14:44:13.863Z,99405.88
2023-03-04T14:46:56.785Z,99409.91
2023-03-04T14:49:35.217Z,99406.63
2023-03-04T14:52:03.314Z,99405.94
2023-03-04T14:54:37.471Z,99396.31
2023-03-04T14:57:26.473Z,99400.44
2023-03-04T14:59:54.881Z,99403.44
2023-03-04T15:02:31.274Z,99405.06
2023-03-04T15:05:16.580Z,99392.13
2023-03-04T15:07:50.646Z,99402.69
2023-03-04T15:10:23.230Z,99402.19
2023-03-04T15:12:55.909Z,99402.88
2023-03-04T15:15:40.573Z,99395.31
2023-03-04T15:18:22.975Z,99400.06
2023-03-04T15:21:00.472Z,99397.72
2023-03-04T15:23:30.005Z,99390.00
2023-03-04T15:25:59.994Z,99399.94
2023-03-04T15:28:31.266Z,99394.91
2023-03-04T15:30:59.235Z,99397.78
2023-03-04T15:33:27.435Z,99398.69
2023-03-04T15:36:00.229Z,99387.63
2023-03-04T15:38:28.939Z,99392.03
2023-03-04T15:40:58.363Z,99395.19
2023-03-04T15:43:26.754Z,99389.03
2023-03-04T15:45:54.939Z,99392.38
2023-03-04T15:48:23.448Z,99393.88
2023-03-04T15:50:56.038Z,99392.53
2023-03-04T15:53:29.722Z,99372.75
2023-03-04T15:55:57.898Z,99400.13
2023-03-04T15:58:26.639Z,99384.22
2023-03-04T16:00:54.552Z,99396.00
2023-03-04T16:03:23.173Z,99412.06
2023-03-04T16:05:52.658Z,99404.38
2023-03-04T16:08:25.034Z,99411.19
2023-03-04T16:10:55.032Z,99416.84
2023-03-04T16:13:24.948Z,99415.56
2023-03-04T16:15:53.096Z,99412.69
2023-03-04T16:18:21.284Z,99415.66
2023-03-04T16:20:50.427Z,99425.72
2023-03-04T16:23:21.666Z,99422.03
2023-03-04T16:25:51.751Z,99420.13
2023-03-04T16:28:21.042Z,99424.66
2023-03-04T16:30:49.389Z,99436.94
2023-03-04T16:33:17.415Z,99432.66
2023-03-04T16:35:46.456Z,99437.56
2023-03-04T16:38:23.196Z,99444.59
2023-03-04T16:40:51.175Z,99429.47
2023-03-04T16:43:19.033Z,99440.19
2023-03-04T16:45:48.442Z,99444.09
2023-03-04T16:48:16.484Z,99448.22
2023-03-04T16:50:45.471Z,99445.09
2023-03-04T16:53:34.279Z,99450.75
2023-03-04T16:56:05.947Z,99458.91
2023-03-04T16:58:34.346Z,99456.44
2023-03-04T17:01:04.116Z,99459.00
2023-03-04T17:03:32.150Z,99457.28
2023-03-04T17:06:00.233Z,99450.50
2023-03-04T17:08:28.128Z,99462.25
2023-03-04T17:10:56.279Z,99465.38
2023-03-04T17:13:24.170Z,99472.63
2023-03-04T17:15:52.844Z,99468.53
2023-03-04T17:18:22.074Z,99467.69
2023-03-04T17:20:50.001Z,99464.41
2023-03-04T17:23:17.865Z,99471.97
2023-03-04T17:25:45.679Z,99473.59
2023-03-04T17:28:13.704Z,99471.25
2023-03-04T17:30:41.550Z,99478.06
2023-03-04T17:33:09.465Z,99479.53
2023-03-04T17:35:40.752Z,99481.03
2023-03-04T17:38:08.959Z,99475.31
2023-03-04T17:40:36.882Z,99469.38
2023-03-04T17:43:11.172Z,99470.22
2023-03-04T17:45:39.345Z,99468.13
2023-03-04T17:48:07.914Z,99469.91
2023-03-04T17:50:35.971Z,99469.81
2023-03-04T17:53:05.255Z,99466.34
2023-03-04T17:55:33.127Z,99463.16
2023-03-04T17:58:00.998Z,99468.34
2023-03-04T18:00:28.868Z,99468.13
2023-03-04T18:02:56.757Z,99473.72
2023-03-04T18:05:24.782Z,99467.69
2023-03-04T18:07:52.673Z,99469.03
2023-03-04T18:10:22.050Z,99463.63
2023-03-04T18:12:49.945Z,99465.88
2023-03-04T18:15:17.987Z,99465.59
2023-03-04T18:17:47.506Z,99461.28
2023-03-04T18:20:15.840Z,99467.84
2023-03-04T18:22:44.047Z,99456.22
2023-03-04T18:25:12.780Z,99459.56
2023-03-04T18:27:42.826Z,99453.75
2023-03-04T18:30:13.599Z,99454.53
2023-03-04T18:32:51.291Z,99457.06
2023-03-04T18:35:20.867Z,99455.44
2023-03-04T18:37:49.444Z,99454.69
2023-03-04T18:40:17.828Z,99465.47
2023-03-04T18:42:47.067Z,99453.13
2023-03-04T18:45:16.885Z,99456.47
2023-03-04T18:47:48.771Z,99454.84
2023-03-04T18:50:17.280Z,99458.25
2023-03-04T18:52:45.715Z,99460.78
2023-03-04T18:55:14.070Z,99458.38
2023-03-04T18:57:45.908Z,99461.78
2023-03-04T19:00:19.333Z,99459.22
2023-03-04T19:02:52.218Z,99460.09
2023-03-04T19:05:22.672Z,99461.84
2023-03-04T19:07:51.344Z,99462.00
2023-03-04T19:10:20.083Z,99462.78
2023-03-04T19:12:48.006Z,99459.38
2023-03-04T19:15:18.221Z,99463.47
2023-03-04T19:17:46.318Z,99466.03
2023-03-04T19:20:15.945Z,99455.56
2023-03-04T19:22:44.262Z,99459.47
2023-03-04T19:25:12.956Z,99457.63
2023-03-04T19:27:40.958Z,99463.78
2023-03-04T19:30:10.176Z,99463.66
2023-03-04T19:32:39.608Z,99454.59
2023-03-04T19:35:08.027Z,99462.22
2023-03-04T19:37:35.917Z,99458.88
2023-03-04T19:40:04.075Z,99454.00
2023-03-04T19:42:32.066Z,99454.13
2023-03-04T19:45:01.574Z,99457.03
2023-03-04T19:47:29.578Z,99459.91
2023-03-04T19:49:58.819Z,99457.47
2023-03-04T19:52:26.748Z,99460.03
2023-03-04T19:54:54.678Z,99458.47
2023-03-04T19:57:22.654Z,99461.81
2023-03-04T19:59:50.548Z,99449.97
2023-03-04T20:02:18.492Z,99461.03
2023-03-04T20:04:46.445Z,99460.25
2023-03-04T20:07:15.712Z,99467.19
2023-03-04T20:09:43.614Z,99460.47
2023-03-04T20:12:12.910Z,99464.31
2023-03-04T20:14:40.881Z,99457.91
2023-03-04T20:17:08.975Z,99461.31
2023-03-04T20:19:36.849Z,99460.47
2023-03-04T20:22:07.011Z,99453.81
2023-03-04T20:24:36.302Z,99454.13
2023-03-04T20:27:04.233Z,99453.75
2023-03-04T20:29:32.041Z,99455.44
2023-03-04T20:31:59.999Z,99449.50
2023-03-04T20:34:28.067Z,99454.25
2023-03-04T20:36:57.389Z,99448.50
2023-03-04T20:39:29.529Z,99445.31
2023-03-04T20:41:59.757Z,99446.09
2023-03-04T20:44:28.251Z,99441.00
2023-03-04T20:46:56.139Z,99439.22
2023-03-04T20:49:26.540Z,99443.13
2023-03-04T20:51:56.231Z,99436.34
2023-03-04T20:54:24.615Z,99431.19
2023-03-04T20:56:52.529Z,99439.59
2023-03-04T20:59:22.056Z,99429.63
2023-03-04T21:01:50.264Z,99432.81
2023-03-04T21:04:19.417Z,99419.34
2023-03-04T21:06:48.371Z,99418.94
2023-03-04T21:09:17.748Z,99424.44
2023-03-04T21:11:46.357Z,99420.03
2023-03-04T21:14:16.115Z,99417.06
2023-03-04T21:16:45.369Z,99422.00
2023-03-04T21:19:17.942Z,99414.22
2023-03-04T21:21:45.912Z,99415.75
2023-03-04T21:24:16.299Z,99423.09
2023-03-04T21:26:45.447Z,99430.53
2023-03-04T21:29:13.576Z,99431.50
2023-03-04T21:31:44.374Z,99434.19
2023-03-04T21:34:17.253Z,99431.94
2023-03-04T21:36:45.205Z,99431.94
2023-03-04T21:39:17.581Z,99425.41
2023-03-04T21:41:45.863Z,99424.84
2023-03-04T21:44:22.882Z,99425.81
2023-03-04T21:46:56.939Z,99430.50
2023-03-04T21:49:26.368Z,99422.78
2023-03-04T21:51:54.368Z,99433.78
2023-03-04T21:54:22.492Z,99428.03
2023-03-04T21:56:50.470Z,99426.41
2023-03-04T21:59:18.428Z,99427.50
2023-03-04T22:01:47.075Z,99413.75
2023-03-04T22:04:15.213Z,99408.94
2023-03-04T22:06:44.377Z,99406.38
2023-03-04T22:09:13.127Z,99406.25
2023-03-04T22:11:41.082Z,99398.09
2023-03-04T22:14:09.301Z,99402.13
2023-03-04T22:16:48.843Z,99402.34
2023-03-04T22:19:20.780Z,99392.50
2023-03-04T22:21:51.274Z,99399.31
2023-03-04T22:24:19.496Z,99398.28
2023-03-04T22:26:47.488Z,99396.72
2023-03-04T22:29:15.418Z,99397.63
2023-03-04T22:31:43.351Z,99400.25
2023-03-04T22:34:13.463Z,99396.19
2023-03-04T22:36:43.702Z,99403.78
2023-03-04T22:39:14.932Z,99401.22
2023-03-04T22:41:43.234Z,99395.41
2023-03-04T22:44:11.146Z,99398.66
2023-03-04T22:46:40.102Z,99398.66
2023-03-04T22:49:10.532Z,99401.72
2023-03-04T22:51:41.003Z,99407.47
2023-03-04T22:54:08.904Z,99408.31
2023-03-04T22:56:39.039Z,99411.72
2023-03-04T22:59:07.107Z,99410.88
2023-03-04T23:01:35.002Z,99416.69
2023-03-04T23:04:03.428Z,99410.81
2023-03-04T23:06:31.638Z,99409.13
2023-03-04T23:09:00.349Z,99410.03
2023-03-04T23:11:30.888Z,99419.16
2023-03-04T23:14:02.175Z,99411.94
2023-03-04T23:16:30.238Z,99409.56
2023-03-04T23:18:59.643Z,99417.88
2023-03-04T23:21:28.559Z,99416.31
2023-03-04T23:23:56.545Z,99417.09
2023-03-04T23:26:27.063Z,99404.19
2023-03-04T23:28:56.743Z,99416.75
2023-03-04T23:31:26.400Z,99415.03
2023-03-04T23:33:57.159Z,99411.53
2023-03-04T23:36:27.514Z,99409.81
2023-03-04T23:38:55.922Z,99414.66
2023-03-04T23:41:25.755Z,99416.13
2023-03-04T23:43:55.127Z,99417.13
2023-03-04T23:46:23.495Z,99417.19
2023-03-04T23:48:53.850Z,99417.97
2023-03-04T23:51:24.036Z,99417.19
2023-03-04T23:53:52.011Z,99422.53
2023-03-04T23:56:21.949Z,99411.84
2023-03-04T23:58:50.577Z,99418.50
